Time;durP1;ratioP1;P1;durP2;ratioP2;P2;SDS_P1;SDS_P2;PMS_P1;PMS_P2;Temp;Humidity;BMP_temperature;BMP_pressure;BME280_temperature;BME280_humidity;BME280_pressure;Samples;Min_cycle;Max_cycle;Signal;HPM_P1;HPM_P2
2023/10/07 00:01:37;;;;;;;12.50;4.30;;;;;;;;;;5026259;28;20403;-57
2023/10/07 00:04:05;;;;;;;11.48;4.78;;;;;;;;;;5023545;28;20419;-57
2023/10/07 00:06:31;;;;;;;11.03;4.50;;;;;;;;;;5023442;28;20403;-57
2023/10/07 00:08:58;;;;;;;10.68;4.60;;;;;;;;;;5017901;28;20403;-57
2023/10/07 00:11:24;;;;;;;10.50;4.22;;;;;;;;;;5025348;28;20921;-57
2023/10/07 00:13:54;;;;;;;11.23;4.80;;;;;;;;;;5021129;28;21189;-57
2023/10/07 00:16:21;;;;;;;12.32;4.82;;;;;;;;;;5016959;28;20404;-57
2023/10/07 00:18:46;;;;;;;10.32;4.20;;;;;;;;;;5026096;28;20411;-57
2023/10/07 00:21:17;;;;;;;12.23;4.70;;;;;;;;;;5020226;28;20489;-57
2023/10/07 00:23:43;;;;;;;13.18;4.90;;;;;;;;;;5017763;28;20905;-57
2023/10/07 00:26:09;;;;;;;10.00;4.93;;;;;;;;;;5025835;28;20545;-58
2023/10/07 00:28:36;;;;;;;9.87;4.37;;;;;;;;;;5019342;28;20759;-57
2023/10/07 00:31:03;;;;;;;11.35;4.75;;;;;;;;;;5021280;28;20937;-58
2023/10/07 00:33:30;;;;;;;10.93;4.50;;;;;;;;;;5026173;28;20397;-57
2023/10/07 00:35:56;;;;;;;12.15;4.55;;;;;;;;;;5025499;28;20399;-57
2023/10/07 00:38:23;;;;;;;10.33;4.83;;;;;;;;;;5019920;28;20464;-58
2023/10/07 00:40:52;;;;;;;10.70;4.65;;;;;;;;;;5017848;28;20407;-57
2023/10/07 00:43:26;;;;;;;12.80;4.70;;;;;;;;;;5025918;28;20403;-57
2023/10/07 00:45:55;;;;;;;11.27;4.60;;;;;;;;;;5019554;28;20763;-56
2023/10/07 00:48:21;;;;;;;11.32;4.90;;;;;;;;;;5017862;28;20424;-57
2023/10/07 00:50:47;;;;;;;11.77;5.03;;;;;;;;;;5025230;28;20899;-57
2023/10/07 00:53:13;;;;;;;11.90;4.82;;;;;;;;;;5016610;28;20475;-57
2023/10/07 00:55:38;;;;;;;10.18;4.70;;;;;;;;;;5019073;28;20467;-57
2023/10/07 00:58:06;;;;;;;11.63;4.83;;;;;;;;;;5024657;28;20488;-58
2023/10/07 01:00:47;;;;;;;15.07;5.00;;;;;;;;;;5024647;28;20936;-57
2023/10/07 01:03:17;;;;;;;13.05;5.20;;;;;;;;;;5019688;28;20451;-57
2023/10/07 01:05:54;;;;;;;12.20;5.37;;;;;;;;;;5017190;28;21054;-57
2023/10/07 01:08:24;;;;;;;12.63;5.53;;;;;;;;;;5016715;28;20899;-57
2023/10/07 01:10:55;;;;;;;10.55;4.85;;;;;;;;;;5030976;28;20391;-57
2023/10/07 01:13:29;;;;;;;12.50;5.20;;;;;;;;;;5026644;28;23851;-57
2023/10/07 01:15:54;;;;;;;13.15;5.32;;;;;;;;;;5016971;28;20405;-57
2023/10/07 01:18:19;;;;;;;12.27;5.60;;;;;;;;;;5014565;28;20934;-57
2023/10/07 01:21:00;;;;;;;10.53;5.17;;;;;;;;;;5023327;28;20405;-57
2023/10/07 01:23:33;;;;;;;12.80;5.50;;;;;;;;;;5019619;28;20389;-57
2023/10/07 01:25:59;;;;;;;13.93;5.60;;;;;;;;;;5024504;28;20416;-57
2023/10/07 01:28:26;;;;;;;15.02;5.90;;;;;;;;;;5024657;28;20738;-57
2023/10/07 01:31:07;;;;;;;12.52;5.20;;;;;;;;;;5021302;28;20413;-57
2023/10/07 01:33:45;;;;;;;12.85;5.32;;;;;;;;;;5021016;28;20434;-57
2023/10/07 01:36:16;;;;;;;13.38;5.55;;;;;;;;;;5024313;28;20473;-57
2023/10/07 01:38:44;;;;;;;12.05;6.03;;;;;;;;;;5024810;28;21008;-57
2023/10/07 01:41:14;;;;;;;14.48;5.88;;;;;;;;;;5017958;28;20941;-58
2023/10/07 01:43:48;;;;;;;14.40;6.35;;;;;;;;;;5018200;28;20409;-57
2023/10/07 01:46:19;;;;;;;15.98;5.97;;;;;;;;;;5024280;28;20411;-57
2023/10/07 01:48:54;;;;;;;16.50;6.43;;;;;;;;;;5015195;28;20412;-57
2023/10/07 01:51:20;;;;;;;14.48;6.60;;;;;;;;;;5012458;28;20760;-57
2023/10/07 01:53:46;;;;;;;14.80;6.10;;;;;;;;;;5018866;28;20410;-57
2023/10/07 01:56:14;;;;;;;13.05;6.13;;;;;;;;;;5024962;28;20407;-57
2023/10/07 01:58:39;;;;;;;13.48;6.28;;;;;;;;;;5024232;28;20471;-58
2023/10/07 02:01:05;;;;;;;13.13;6.33;;;;;;;;;;5017926;28;20489;-57
2023/10/07 02:03:32;;;;;;;15.23;6.90;;;;;;;;;;5016220;28;20879;-57
2023/10/07 02:05:58;;;;;;;15.90;6.60;;;;;;;;;;5015026;28;20393;-57
2023/10/07 02:08:23;;;;;;;15.60;6.55;;;;;;;;;;5010337;28;20405;-57
2023/10/07 02:10:49;;;;;;;14.83;6.17;;;;;;;;;;5010043;28;20810;-57
2023/10/07 02:13:19;;;;;;;16.13;6.45;;;;;;;;;;5018751;28;20978;-57
2023/10/07 02:15:44;;;;;;;13.70;6.30;;;;;;;;;;5005823;28;20389;-57
2023/10/07 02:18:15;;;;;;;13.80;6.28;;;;;;;;;;5001142;28;20483;-57
2023/10/07 02:20:43;;;;;;;12.98;6.32;;;;;;;;;;5002083;28;20405;-57
2023/10/07 02:23:12;;;;;;;14.57;6.70;;;;;;;;;;5015452;28;20418;-57
2023/10/07 02:25:40;;;;;;;16.08;7.30;;;;;;;;;;5012984;28;20952;-56
2023/10/07 02:28:05;;;;;;;14.35;7.30;;;;;;;;;;5001072;28;20835;-57
2023/10/07 02:30:38;;;;;;;13.50;7.90;;;;;;;;;;5004539;28;20814;-57
2023/10/07 02:33:07;;;;;;;15.23;7.40;;;;;;;;;;5020272;28;20481;-57
2023/10/07 02:35:33;;;;;;;15.85;7.85;;;;;;;;;;5019186;28;20479;-57
2023/10/07 02:38:02;;;;;;;16.10;8.03;;;;;;;;;;5019960;28;20992;-57
2023/10/07 02:40:35;;;;;;;17.40;8.48;;;;;;;;;;5020010;28;20386;-57
2023/10/07 02:43:06;;;;;;;16.15;7.65;;;;;;;;;;5015533;28;20892;-58
2023/10/07 02:45:39;;;;;;;17.83;8.60;;;;;;;;;;5002833;28;20388;-57
2023/10/07 02:48:04;;;;;;;14.40;8.27;;;;;;;;;;5011827;28;20809;-57
2023/10/07 02:50:31;;;;;;;18.97;8.50;;;;;;;;;;5011538;28;21028;-57
2023/10/07 02:52:57;;;;;;;16.92;8.57;;;;;;;;;;5016722;28;20414;-57
2023/10/07 02:57:54;;;;;;;16.50;8.07;;;;;;;;;;5019366;28;20501;-57
2023/10/07 03:00:29;;;;;;;16.55;7.78;;;;;;;;;;5019715;28;20411;-57
2023/10/07 03:03:09;;;;;;;19.02;8.30;;;;;;;;;;5020280;28;20411;-57
2023/10/07 03:05:43;;;;;;;16.13;8.70;;;;;;;;;;5019400;28;20886;-57
2023/10/07 03:08:17;;;;;;;16.95;8.85;;;;;;;;;;5016221;28;20930;-57
2023/10/07 03:10:44;;;;;;;18.48;9.13;;;;;;;;;;4997197;28;20451;-57
2023/10/07 03:13:09;;;;;;;16.05;8.65;;;;;;;;;;5023701;28;20406;-57
2023/10/07 03:18:00;;;;;;;19.10;8.80;;;;;;;;;;5028227;28;20400;-57
2023/10/07 03:20:46;;;;;;;18.60;9.15;;;;;;;;;;5009939;28;20880;-56
2023/10/07 03:23:14;;;;;;;18.25;9.30;;;;;;;;;;5011914;28;20463;-56
2023/10/07 03:28:25;;;;;;;19.33;9.32;;;;;;;;;;5016310;28;20384;-57
2023/10/07 03:30:52;;;;;;;17.67;9.70;;;;;;;;;;5048513;28;20393;-57
2023/10/07 03:33:32;;;;;;;16.13;8.82;;;;;;;;;;5054477;28;21310;-57
2023/10/07 03:38:26;;;;;;;17.65;10.02;;;;;;;;;;5056093;28;20945;-57
2023/10/07 03:40:54;;;;;;;18.50;10.02;;;;;;;;;;5055665;28;20964;-57
2023/10/07 03:43:20;;;;;;;18.23;9.95;;;;;;;;;;5010197;28;20405;-57
2023/10/07 03:45:45;;;;;;;19.37;10.07;;;;;;;;;;5004960;28;20412;-57
2023/10/07 03:48:30;;;;;;;21.37;10.33;;;;;;;;;;5006060;28;20420;-57
2023/10/07 03:51:05;;;;;;;19.60;10.37;;;;;;;;;;5026428;28;20422;-57
2023/10/07 03:53:32;;;;;;;17.77;9.73;;;;;;;;;;5023564;28;20840;-57
2023/10/07 03:55:59;;;;;;;20.17;9.80;;;;;;;;;;5011714;28;20407;-56
2023/10/07 03:58:27;;;;;;;19.52;9.93;;;;;;;;;;5009761;28;20407;-57
2023/10/07 04:00:52;;;;;;;18.63;10.18;;;;;;;;;;5005517;28;20476;-57
2023/10/07 04:03:18;;;;;;;19.53;9.97;;;;;;;;;;5003383;28;20417;-57
2023/10/07 04:05:49;;;;;;;18.97;10.10;;;;;;;;;;5007740;28;21313;-57
2023/10/07 04:08:14;;;;;;;19.13;10.30;;;;;;;;;;5006168;28;20409;-57
2023/10/07 04:10:45;;;;;;;20.10;10.47;;;;;;;;;;5010425;28;20461;-57
2023/10/07 04:13:11;;;;;;;17.83;10.15;;;;;;;;;;5013058;28;20411;-57
2023/10/07 04:15:44;;;;;;;19.35;9.80;;;;;;;;;;5009888;28;20464;-57
2023/10/07 04:18:10;;;;;;;21.58;11.23;;;;;;;;;;5009566;28;20888;-57
2023/10/07 04:20:51;;;;;;;23.40;11.13;;;;;;;;;;5012439;28;20497;-57
2023/10/07 04:23:24;;;;;;;21.60;11.68;;;;;;;;;;5010653;28;20408;-57
2023/10/07 04:25:49;;;;;;;25.48;11.43;;;;;;;;;;5002394;28;20401;-57
2023/10/07 04:28:15;;;;;;;20.07;11.13;;;;;;;;;;5001461;28;20470;-57
2023/10/07 04:30:46;;;;;;;18.77;11.23;;;;;;;;;;5008463;28;20657;-56
2023/10/07 04:33:12;;;;;;;21.65;11.70;;;;;;;;;;5010060;28;20520;-57
2023/10/07 04:35:38;;;;;;;25.80;11.38;;;;;;;;;;5006091;28;20397;-56
2023/10/07 04:38:10;;;;;;;21.30;11.00;;;;;;;;;;5007873;28;20433;-57
2023/10/07 04:43:35;;;;;;;20.73;10.93;;;;;;;;;;5014956;28;20545;-56
2023/10/07 04:46:06;;;;;;;21.03;10.90;;;;;;;;;;5018434;28;21025;-58
2023/10/07 04:48:42;;;;;;;21.20;11.48;;;;;;;;;;5005767;28;20450;-57
2023/10/07 04:51:12;;;;;;;24.90;12.68;;;;;;;;;;5014075;28;20409;-57
2023/10/07 04:53:39;;;;;;;21.73;11.20;;;;;;;;;;5019909;28;20476;-57
2023/10/07 04:56:06;;;;;;;22.13;11.20;;;;;;;;;;5022255;28;20910;-57
2023/10/07 04:58:31;;;;;;;22.00;11.52;;;;;;;;;;5021748;28;20983;-57
2023/10/07 05:01:04;;;;;;;21.33;11.33;;;;;;;;;;5022524;28;20925;-57
2023/10/07 05:03:30;;;;;;;23.98;11.82;;;;;;;;;;5021572;28;20458;-57
2023/10/07 05:05:55;;;;;;;19.77;10.93;;;;;;;;;;5022172;28;20537;-56
2023/10/07 05:08:22;;;;;;;19.27;10.90;;;;;;;;;;5018867;28;20407;-56
2023/10/07 05:10:52;;;;;;;21.23;11.15;;;;;;;;;;4998062;28;20401;-57
2023/10/07 05:13:18;;;;;;;23.38;11.50;;;;;;;;;;5013872;28;20399;-57
2023/10/07 05:15:43;;;;;;;20.55;11.02;;;;;;;;;;5017238;28;20441;-57
2023/10/07 05:18:12;;;;;;;22.43;11.60;;;;;;;;;;5018885;28;20956;-57
2023/10/07 05:20:38;;;;;;;25.13;11.65;;;;;;;;;;5022359;28;20398;-57
2023/10/07 05:23:04;;;;;;;21.73;10.80;;;;;;;;;;5021624;28;20388;-57
2023/10/07 05:25:35;;;;;;;20.40;11.00;;;;;;;;;;5021166;28;20414;-57
2023/10/07 05:28:02;;;;;;;21.42;11.15;;;;;;;;;;5021479;28;20669;-57
2023/10/07 05:30:32;;;;;;;20.48;11.25;;;;;;;;;;5008898;28;20471;-57
2023/10/07 05:32:58;;;;;;;19.15;10.73;;;;;;;;;;5013707;28;20739;-57
2023/10/07 05:35:23;;;;;;;23.33;11.33;;;;;;;;;;5013866;28;20413;-57
2023/10/07 05:37:49;;;;;;;22.27;11.00;;;;;;;;;;5015787;28;20399;-57
2023/10/07 05:40:15;;;;;;;19.88;11.65;;;;;;;;;;5020573;28;20434;-57
2023/10/07 05:42:42;;;;;;;25.57;12.37;;;;;;;;;;5020096;28;20779;-57
2023/10/07 05:45:09;;;;;;;22.17;11.48;;;;;;;;;;5002187;28;20502;-57
2023/10/07 05:47:34;;;;;;;20.98;12.32;;;;;;;;;;5016538;28;20395;-57
2023/10/07 05:50:01;;;;;;;20.30;11.80;;;;;;;;;;5002328;28;20603;-57
2023/10/07 05:52:28;;;;;;;22.60;11.98;;;;;;;;;;5021136;28;20474;-57
2023/10/07 05:54:56;;;;;;;25.13;12.77;;;;;;;;;;5014284;28;20995;-57
2023/10/07 05:57:22;;;;;;;23.17;13.25;;;;;;;;;;5012877;28;20746;-57
2023/10/07 05:59:47;;;;;;;24.10;13.50;;;;;;;;;;5013181;28;20473;-57
2023/10/07 06:02:16;;;;;;;21.50;12.80;;;;;;;;;;5019767;28;20442;-57
2023/10/07 06:04:41;;;;;;;20.52;12.95;;;;;;;;;;5021425;28;20403;-57
2023/10/07 06:07:07;;;;;;;22.97;13.33;;;;;;;;;;5020401;28;20750;-57
2023/10/07 06:09:32;;;;;;;24.23;13.13;;;;;;;;;;5014881;28;20480;-57
2023/10/07 06:11:59;;;;;;;26.30;14.67;;;;;;;;;;5002147;28;20737;-57
2023/10/07 06:14:24;;;;;;;26.33;14.23;;;;;;;;;;5007667;28;20389;-57
2023/10/07 06:16:52;;;;;;;22.13;13.67;;;;;;;;;;4997563;28;20755;-57
2023/10/07 06:19:18;;;;;;;23.50;13.73;;;;;;;;;;5003931;28;20411;-57
2023/10/07 06:21:50;;;;;;;23.73;13.83;;;;;;;;;;4996159;28;20932;-57
2023/10/07 06:24:20;;;;;;;28.20;14.43;;;;;;;;;;5004416;28;20422;-57
2023/10/07 06:26:46;;;;;;;25.35;14.35;;;;;;;;;;5005096;28;20487;-57
2023/10/07 06:29:18;;;;;;;24.10;13.93;;;;;;;;;;5004336;28;20413;-57
2023/10/07 06:31:48;;;;;;;22.27;13.30;;;;;;;;;;5018359;28;20878;-57
2023/10/07 06:34:14;;;;;;;26.35;15.07;;;;;;;;;;5021889;28;20410;-57
2023/10/07 06:36:40;;;;;;;25.90;14.27;;;;;;;;;;5023539;28;20434;-57
2023/10/07 06:39:07;;;;;;;24.50;14.23;;;;;;;;;;5021584;28;20434;-57
2023/10/07 06:41:33;;;;;;;26.33;13.65;;;;;;;;;;5021484;28;20456;-57
2023/10/07 06:44:02;;;;;;;21.70;13.52;;;;;;;;;;5022985;28;20418;-57
2023/10/07 06:46:29;;;;;;;23.63;13.80;;;;;;;;;;5023401;28;20399;-57
2023/10/07 06:48:55;;;;;;;24.52;13.70;;;;;;;;;;5017653;28;20409;-57
2023/10/07 06:51:20;;;;;;;25.20;14.03;;;;;;;;;;5014757;28;20389;-57
2023/10/07 06:53:45;;;;;;;22.77;13.23;;;;;;;;;;5015234;28;20397;-57
2023/10/07 06:56:20;;;;;;;24.05;13.65;;;;;;;;;;5017281;28;20751;-56
2023/10/07 06:58:45;;;;;;;24.77;13.30;;;;;;;;;;5021293;28;20970;-57
2023/10/07 07:01:17;;;;;;;23.87;13.50;;;;;;;;;;5023041;28;20413;-57
2023/10/07 07:03:43;;;;;;;24.65;13.57;;;;;;;;;;5021019;28;20407;-57
2023/10/07 07:06:16;;;;;;;25.08;13.27;;;;;;;;;;5030882;28;20450;-57
2023/10/07 07:08:42;;;;;;;23.20;13.60;;;;;;;;;;5030176;28;20399;-58
2023/10/07 07:11:10;;;;;;;25.10;14.07;;;;;;;;;;5029013;28;20418;-57
2023/10/07 07:13:37;;;;;;;23.98;12.77;;;;;;;;;;5026242;28;20409;-57
2023/10/07 07:16:08;;;;;;;26.08;14.20;;;;;;;;;;5029878;28;20407;-57
2023/10/07 07:18:33;;;;;;;23.02;12.85;;;;;;;;;;5029332;28;20466;-57
2023/10/07 07:21:34;;;;;;;22.23;12.63;;;;;;;;;;5030197;28;20399;-57
2023/10/07 07:23:51;;;;;;;26.08;12.90;;;;;;;;;;5029037;28;20394;-57
2023/10/07 07:26:20;;;;;;;19.63;12.25;;;;;;;;;;5029118;28;20411;-57
2023/10/07 07:28:46;;;;;;;22.33;11.93;;;;;;;;;;5029701;28;20407;-57
2023/10/07 07:31:18;;;;;;;20.30;11.88;;;;;;;;;;5038396;28;20529;-58
2023/10/07 07:33:44;;;;;;;22.63;12.43;;;;;;;;;;5029768;28;20399;-57
2023/10/07 07:36:37;;;;;;;19.95;11.68;;;;;;;;;;5032647;28;20413;-57
2023/10/07 07:39:06;;;;;;;21.95;11.77;;;;;;;;;;5033893;28;20405;-57
2023/10/07 07:41:54;;;;;;;23.13;11.60;;;;;;;;;;5049881;28;20756;-57
2023/10/07 07:44:32;;;;;;;20.67;11.55;;;;;;;;;;5031008;28;20937;-57
2023/10/07 07:47:03;;;;;;;21.15;11.18;;;;;;;;;;5029295;28;20494;-57
2023/10/07 07:49:32;;;;;;;19.80;10.80;;;;;;;;;;5029577;28;20951;-57
2023/10/07 07:51:58;;;;;;;22.02;11.73;;;;;;;;;;5029903;28;20756;-57
2023/10/07 07:54:24;;;;;;;21.95;10.70;;;;;;;;;;5028432;28;20392;-57
2023/10/07 07:56:50;;;;;;;25.45;11.30;;;;;;;;;;5029960;28;20391;-57
2023/10/07 07:59:15;;;;;;;18.00;10.57;;;;;;;;;;5028242;28;20736;-57
2023/10/07 08:01:45;;;;;;;21.47;10.57;;;;;;;;;;5029947;28;20402;-57
2023/10/07 08:04:17;;;;;;;21.43;11.20;;;;;;;;;;5029148;28;20407;-57
2023/10/07 08:06:42;;;;;;;22.98;10.90;;;;;;;;;;5028962;28;20406;-57
2023/10/07 08:09:10;;;;;;;20.53;10.17;;;;;;;;;;5029672;28;20415;-57
2023/10/07 08:11:35;;;;;;;17.65;9.93;;;;;;;;;;5033494;28;20882;-57
2023/10/07 08:14:09;;;;;;;21.08;10.75;;;;;;;;;;5032068;28;20421;-58
2023/10/07 08:16:43;;;;;;;19.67;10.57;;;;;;;;;;5033161;28;20448;-57
2023/10/07 08:19:09;;;;;;;21.88;11.10;;;;;;;;;;5032194;28;20493;-57
2023/10/07 08:21:35;;;;;;;22.70;10.68;;;;;;;;;;5032305;28;20406;-57
2023/10/07 08:24:02;;;;;;;19.23;10.50;;;;;;;;;;5032393;28;20423;-58
2023/10/07 08:26:28;;;;;;;17.20;9.73;;;;;;;;;;5032109;28;20481;-57
2023/10/07 08:31:29;;;;;;;17.85;9.63;;;;;;;;;;5032597;28;20395;-57
2023/10/07 08:34:09;;;;;;;15.77;9.43;;;;;;;;;;5032963;28;20486;-57
2023/10/07 08:36:36;;;;;;;18.83;10.20;;;;;;;;;;5031836;28;20450;-57
2023/10/07 08:39:09;;;;;;;17.42;10.05;;;;;;;;;;5032433;28;20502;-57
2023/10/07 08:41:35;;;;;;;19.27;9.75;;;;;;;;;;5032212;28;20457;-57
2023/10/07 08:44:13;;;;;;;16.85;9.25;;;;;;;;;;5034184;28;20395;-58
2023/10/07 08:46:39;;;;;;;15.02;9.77;;;;;;;;;;5032837;28;20409;-57
2023/10/07 08:49:10;;;;;;;15.43;9.33;;;;;;;;;;5031416;28;20494;-58
2023/10/07 08:51:40;;;;;;;17.50;8.50;;;;;;;;;;5032705;28;20383;-57
2023/10/07 08:54:10;;;;;;;14.70;8.90;;;;;;;;;;5032092;28;20928;-57
2023/10/07 08:56:37;;;;;;;16.23;8.20;;;;;;;;;;5031871;28;20400;-57
2023/10/07 08:59:06;;;;;;;16.25;9.68;;;;;;;;;;5047114;28;20501;-58
2023/10/07 09:01:32;;;;;;;15.50;8.93;;;;;;;;;;5047438;28;20469;-57
2023/10/07 09:04:00;;;;;;;15.68;8.68;;;;;;;;;;5031692;28;20407;-57
2023/10/07 09:06:33;;;;;;;15.57;8.32;;;;;;;;;;5032026;28;20391;-58
2023/10/07 09:09:06;;;;;;;16.77;8.80;;;;;;;;;;5032332;28;20482;-57
2023/10/07 09:11:31;;;;;;;18.50;8.73;;;;;;;;;;5030998;28;20735;-57
2023/10/07 09:14:01;;;;;;;14.63;8.87;;;;;;;;;;5032109;28;20398;-57
2023/10/07 09:16:31;;;;;;;18.23;8.77;;;;;;;;;;5032113;28;20525;-57
2023/10/07 09:18:59;;;;;;;17.35;8.80;;;;;;;;;;5032053;28;20906;-57
2023/10/07 09:21:28;;;;;;;14.48;8.18;;;;;;;;;;5030986;28;20462;-57
2023/10/07 09:23:59;;;;;;;15.90;8.20;;;;;;;;;;5031067;28;20422;-57
2023/10/07 09:26:33;;;;;;;15.83;7.60;;;;;;;;;;5031621;28;20406;-57
2023/10/07 09:28:59;;;;;;;11.80;6.90;;;;;;;;;;5030465;28;20778;-57
2023/10/07 09:31:26;;;;;;;13.60;7.30;;;;;;;;;;5030831;28;20392;-57
2023/10/07 09:33:51;;;;;;;13.15;7.18;;;;;;;;;;5031956;28;20813;-58
2023/10/07 09:36:33;;;;;;;14.13;7.13;;;;;;;;;;5031473;28;20407;-57
2023/10/07 09:39:13;;;;;;;14.95;7.10;;;;;;;;;;5031012;28;20437;-58
2023/10/07 09:41:39;;;;;;;14.10;6.47;;;;;;;;;;5031390;28;20942;-57
2023/10/07 09:44:21;;;;;;;13.13;6.60;;;;;;;;;;5033000;28;20411;-57
2023/10/07 09:46:52;;;;;;;11.52;6.00;;;;;;;;;;5030763;28;20449;-57
2023/10/07 09:49:19;;;;;;;10.93;6.15;;;;;;;;;;5031293;28;20466;-57
2023/10/07 09:51:47;;;;;;;12.60;6.55;;;;;;;;;;5030838;28;20928;-58
2023/10/07 09:54:16;;;;;;;14.32;6.50;;;;;;;;;;5029945;28;20410;-57
2023/10/07 09:56:43;;;;;;;12.32;6.20;;;;;;;;;;5031408;28;20445;-57
2023/10/07 09:59:22;;;;;;;13.07;6.35;;;;;;;;;;5029956;28;20419;-57
2023/10/07 10:01:58;;;;;;;13.07;6.53;;;;;;;;;;5030178;28;20407;-57
2023/10/07 10:04:36;;;;;;;12.73;6.43;;;;;;;;;;5030924;28;20391;-57
2023/10/07 10:07:05;;;;;;;12.15;6.20;;;;;;;;;;5030063;28;20530;-58
2023/10/07 10:09:42;;;;;;;14.55;6.38;;;;;;;;;;5031338;28;20953;-57
2023/10/07 10:12:18;;;;;;;11.95;5.60;;;;;;;;;;5029151;28;20399;-57
2023/10/07 10:17:39;;;;;;;13.57;6.28;;;;;;;;;;5030795;28;20475;-57
2023/10/07 10:20:11;;;;;;;13.32;5.85;;;;;;;;;;5029778;28;20928;-57
2023/10/07 10:22:38;;;;;;;12.35;5.95;;;;;;;;;;5031091;28;20399;-57
2023/10/07 10:25:09;;;;;;;11.50;5.70;;;;;;;;;;5030614;28;20926;-57
2023/10/07 10:27:40;;;;;;;13.52;5.72;;;;;;;;;;5029744;28;20391;-57
2023/10/07 10:30:06;;;;;;;16.63;5.60;;;;;;;;;;5040295;28;20408;-57
2023/10/07 10:32:36;;;;;;;12.35;5.60;;;;;;;;;;5043969;28;20400;-57
2023/10/07 10:35:03;;;;;;;14.23;5.75;;;;;;;;;;5020015;28;20410;-58
2023/10/07 10:37:30;;;;;;;12.85;5.07;;;;;;;;;;5022667;28;20488;-57
2023/10/07 10:39:56;;;;;;;11.13;5.13;;;;;;;;;;5023860;28;20503;-57
2023/10/07 10:42:21;;;;;;;12.80;5.47;;;;;;;;;;5022045;28;20385;-57
2023/10/07 10:44:47;;;;;;;13.90;5.25;;;;;;;;;;5020397;28;20903;-57
2023/10/07 10:47:15;;;;;;;12.37;5.17;;;;;;;;;;5023398;28;20403;-57
2023/10/07 10:49:43;;;;;;;12.03;5.67;;;;;;;;;;5014757;28;20495;-57
2023/10/07 10:52:10;;;;;;;14.25;5.40;;;;;;;;;;5018060;28;20419;-58
2023/10/07 10:54:36;;;;;;;12.57;5.25;;;;;;;;;;5015272;28;20407;-57
2023/10/07 10:57:05;;;;;;;15.18;5.47;;;;;;;;;;5022245;28;20424;-58
2023/10/07 10:59:42;;;;;;;12.40;4.82;;;;;;;;;;5016737;28;20451;-57
2023/10/07 11:02:09;;;;;;;13.25;5.25;;;;;;;;;;5015854;28;20411;-58
2023/10/07 11:04:34;;;;;;;12.50;4.85;;;;;;;;;;5015384;28;20411;-57
2023/10/07 11:07:00;;;;;;;12.63;5.60;;;;;;;;;;5023610;28;20395;-57
2023/10/07 11:09:26;;;;;;;12.37;5.10;;;;;;;;;;5016831;28;20407;-57
2023/10/07 11:11:53;;;;;;;11.80;5.13;;;;;;;;;;5022201;28;20410;-57
2023/10/07 11:14:20;;;;;;;16.85;5.20;;;;;;;;;;5014540;28;20426;-57
2023/10/07 11:16:46;;;;;;;16.65;5.38;;;;;;;;;;5011828;28;20440;-57
2023/10/07 11:19:12;;;;;;;13.00;5.00;;;;;;;;;;5015711;28;20470;-57
2023/10/07 11:21:41;;;;;;;13.82;4.80;;;;;;;;;;5015035;28;20516;-58
2023/10/07 11:24:07;;;;;;;12.55;5.03;;;;;;;;;;5020412;28;20422;-57
2023/10/07 11:26:32;;;;;;;12.43;5.17;;;;;;;;;;5019449;28;20745;-58
2023/10/07 11:28:58;;;;;;;16.48;5.65;;;;;;;;;;5014693;28;20438;-57
2023/10/07 11:31:43;;;;;;;14.48;5.13;;;;;;;;;;5022155;28;20402;-57
2023/10/07 11:34:10;;;;;;;11.10;4.90;;;;;;;;;;5016306;28;20512;-57
2023/10/07 11:36:43;;;;;;;12.80;5.32;;;;;;;;;;5016391;28;20978;-57
2023/10/07 11:39:08;;;;;;;11.98;4.95;;;;;;;;;;5005375;28;20506;-57
2023/10/07 11:41:34;;;;;;;14.40;4.70;;;;;;;;;;5000862;28;20958;-57
2023/10/07 11:43:59;;;;;;;12.77;4.67;;;;;;;;;;5003542;28;20447;-57
2023/10/07 11:46:25;;;;;;;13.07;4.50;;;;;;;;;;5009319;28;20486;-57
2023/10/07 11:48:50;;;;;;;12.13;4.20;;;;;;;;;;5011667;28;20413;-57
2023/10/07 11:51:15;;;;;;;12.80;4.65;;;;;;;;;;5012285;28;20410;-57
2023/10/07 11:53:41;;;;;;;11.43;4.32;;;;;;;;;;5012246;28;20717;-57
2023/10/07 11:56:11;;;;;;;13.52;4.72;;;;;;;;;;5019141;28;20934;-57
2023/10/07 11:58:37;;;;;;;12.35;4.47;;;;;;;;;;5011288;28;20420;-57
2023/10/07 12:01:03;;;;;;;13.27;4.57;;;;;;;;;;5009177;28;20419;-57
2023/10/07 12:03:30;;;;;;;13.88;5.25;;;;;;;;;;5003278;28;20471;-57
2023/10/07 12:05:57;;;;;;;13.60;4.30;;;;;;;;;;5023282;28;20418;-57
2023/10/07 12:08:23;;;;;;;14.40;4.40;;;;;;;;;;5020441;28;20480;-57
2023/10/07 12:10:49;;;;;;;12.47;4.53;;;;;;;;;;5026028;28;20548;-57
2023/10/07 12:13:14;;;;;;;12.00;4.15;;;;;;;;;;5017087;28;20503;-57
2023/10/07 12:15:42;;;;;;;13.23;4.30;;;;;;;;;;5019919;28;20938;-57
2023/10/07 12:18:07;;;;;;;13.35;4.28;;;;;;;;;;5019037;28;20395;-58
2023/10/07 12:20:33;;;;;;;13.87;3.90;;;;;;;;;;5025456;28;20418;-57
2023/10/07 12:22:58;;;;;;;14.20;4.30;;;;;;;;;;5021337;28;21277;-57
2023/10/07 12:25:23;;;;;;;13.30;4.23;;;;;;;;;;5021142;28;20772;-58
2023/10/07 12:27:49;;;;;;;16.30;4.23;;;;;;;;;;5025686;28;20452;-57
2023/10/07 12:30:17;;;;;;;12.80;4.10;;;;;;;;;;5025092;28;20921;-58
2023/10/07 12:32:43;;;;;;;12.05;4.00;;;;;;;;;;5020752;28;20407;-57
2023/10/07 12:35:10;;;;;;;12.37;3.57;;;;;;;;;;5017161;28;20411;-58
2023/10/07 12:37:38;;;;;;;10.93;3.90;;;;;;;;;;5025766;28;20403;-57
2023/10/07 12:40:05;;;;;;;11.93;4.00;;;;;;;;;;5018570;28;20768;-58
2023/10/07 12:42:32;;;;;;;13.30;4.50;;;;;;;;;;5019017;28;20403;-57
2023/10/07 12:44:59;;;;;;;16.23;4.28;;;;;;;;;;5025533;28;20412;-58
2023/10/07 12:47:29;;;;;;;11.57;3.65;;;;;;;;;;5017609;28;20408;-57
2023/10/07 12:49:54;;;;;;;13.30;4.45;;;;;;;;;;5020000;28;20424;-58
2023/10/07 12:52:20;;;;;;;11.80;3.60;;;;;;;;;;5017017;28;20400;-57
2023/10/07 12:54:45;;;;;;;12.73;4.28;;;;;;;;;;5025153;28;20418;-58
2023/10/07 12:57:15;;;;;;;13.27;4.18;;;;;;;;;;5020777;28;21027;-57
2023/10/07 12:59:42;;;;;;;12.45;4.18;;;;;;;;;;5022574;28;20496;-57
2023/10/07 13:02:09;;;;;;;14.18;4.18;;;;;;;;;;5016222;28;20396;-58
2023/10/07 13:04:35;;;;;;;11.82;4.13;;;;;;;;;;5030367;28;20390;-57
2023/10/07 13:07:02;;;;;;;12.53;4.00;;;;;;;;;;5021100;28;20418;-57
2023/10/07 13:09:30;;;;;;;13.47;4.07;;;;;;;;;;5025856;28;20472;-57
2023/10/07 13:11:56;;;;;;;12.25;4.05;;;;;;;;;;5020455;28;20395;-58
2023/10/07 13:14:21;;;;;;;14.93;4.27;;;;;;;;;;5021267;28;20727;-57
2023/10/07 13:16:48;;;;;;;12.07;3.80;;;;;;;;;;5022932;28;20498;-58
2023/10/07 13:19:13;;;;;;;13.60;3.88;;;;;;;;;;5025043;28;20460;-57
2023/10/07 13:21:39;;;;;;;14.53;3.97;;;;;;;;;;5023829;28;20434;-57
2023/10/07 13:24:07;;;;;;;15.13;4.07;;;;;;;;;;5019983;28;20411;-57
2023/10/07 13:26:33;;;;;;;13.98;4.07;;;;;;;;;;5016882;28;20425;-57
2023/10/07 13:28:59;;;;;;;14.05;4.88;;;;;;;;;;5025691;28;20886;-57
2023/10/07 13:31:24;;;;;;;13.50;4.17;;;;;;;;;;5018248;28;20754;-57
2023/10/07 13:33:51;;;;;;;14.37;4.50;;;;;;;;;;5017339;28;20833;-57
2023/10/07 13:36:17;;;;;;;14.77;4.10;;;;;;;;;;5016450;28;20413;-57
2023/10/07 13:38:42;;;;;;;15.17;4.53;;;;;;;;;;5021846;28;20418;-58
2023/10/07 13:41:07;;;;;;;13.40;4.27;;;;;;;;;;5021732;28;20424;-57
2023/10/07 13:43:33;;;;;;;12.97;3.87;;;;;;;;;;5025198;28;20443;-57
2023/10/07 13:46:01;;;;;;;13.30;4.10;;;;;;;;;;5023023;28;20403;-57
2023/10/07 13:48:27;;;;;;;12.48;3.80;;;;;;;;;;5019468;28;20408;-58
2023/10/07 13:50:57;;;;;;;11.93;4.10;;;;;;;;;;5023522;28;20779;-57
2023/10/07 13:53:40;;;;;;;14.13;4.18;;;;;;;;;;5023221;28;20395;-57
2023/10/07 13:56:12;;;;;;;16.27;4.45;;;;;;;;;;5017325;28;20746;-58
2023/10/07 13:58:39;;;;;;;14.57;4.20;;;;;;;;;;5017087;28;20403;-58
2023/10/07 14:01:05;;;;;;;15.30;3.97;;;;;;;;;;5015808;28;20780;-58
2023/10/07 14:03:35;;;;;;;13.18;4.10;;;;;;;;;;5016506;28;20393;-57
2023/10/07 14:06:03;;;;;;;13.80;4.25;;;;;;;;;;5017609;28;20435;-59
2023/10/07 14:08:29;;;;;;;12.77;4.10;;;;;;;;;;5016644;28;20398;-57
2023/10/07 14:11:00;;;;;;;13.77;4.05;;;;;;;;;;5024615;28;20399;-57
2023/10/07 14:13:29;;;;;;;15.55;4.25;;;;;;;;;;5021085;28;20391;-58
2023/10/07 14:15:57;;;;;;;19.25;4.32;;;;;;;;;;5020870;28;20395;-57
2023/10/07 14:18:23;;;;;;;12.90;4.40;;;;;;;;;;5031603;28;20383;-57
2023/10/07 14:20:51;;;;;;;13.35;4.43;;;;;;;;;;5023601;28;20403;-57
2023/10/07 14:23:17;;;;;;;10.90;4.10;;;;;;;;;;5017982;28;20449;-57
2023/10/07 14:25:43;;;;;;;14.68;3.80;;;;;;;;;;5016375;28;20462;-57
2023/10/07 14:28:08;;;;;;;13.13;4.13;;;;;;;;;;5022491;28;20439;-57
2023/10/07 14:30:33;;;;;;;14.50;3.97;;;;;;;;;;5017973;28;20403;-57
2023/10/07 14:32:59;;;;;;;13.77;4.20;;;;;;;;;;5016403;28;20411;-57
2023/10/07 14:35:24;;;;;;;13.73;4.10;;;;;;;;;;5023471;28;20467;-57
2023/10/07 14:37:49;;;;;;;14.00;4.63;;;;;;;;;;5016593;28;20401;-57
2023/10/07 14:40:17;;;;;;;15.87;4.33;;;;;;;;;;5016808;28;20467;-58
2023/10/07 14:42:43;;;;;;;15.93;4.32;;;;;;;;;;5023413;28;20486;-58
2023/10/07 14:45:09;;;;;;;13.17;3.90;;;;;;;;;;5015443;28;20480;-57
2023/10/07 14:47:34;;;;;;;13.75;4.03;;;;;;;;;;5018810;28;20400;-57
2023/10/07 14:50:00;;;;;;;14.20;4.10;;;;;;;;;;5022415;28;20418;-57
2023/10/07 14:52:26;;;;;;;17.07;4.23;;;;;;;;;;5015188;28;20396;-57